sensor_id;sensor_type;location;lat;lon;timestamp;pressure;altitude;pressure_sealevel;temperature;humidity
72685;BME280;61365;52.162;4.500;2024-01-15T00:00:25;100381.91;;;4.53;100.00
72685;BME280;61365;52.162;4.500;2024-01-15T00:02:51;100381.00;;;4.49;100.00
72685;BME280;61365;52.162;4.500;2024-01-15T00:05:18;100385.53;;;4.62;93.20
72685;BME280;61365;52.162;4.500;2024-01-15T00:07:44;100383.84;;;4.64;96.29
72685;BME280;61365;52.162;4.500;2024-01-15T00:10:10;100387.09;;;4.51;100.00
72685;BME280;61365;52.162;4.500;2024-01-15T00:12:36;100380.00;;;4.41;100.00
72685;BME280;61365;52.162;4.500;2024-01-15T00:15:02;100377.47;;;4.45;100.00
72685;BME280;61365;52.162;4.500;2024-01-15T00:17:28;100375.66;;;4.40;100.00
72685;BME280;61365;52.162;4.500;2024-01-15T00:19:54;100369.44;;;4.31;100.00
72685;BME280;61365;52.162;4.500;2024-01-15T00:22:21;100371.06;;;4.25;100.00
72685;BME280;61365;52.162;4.500;2024-01-15T00:24:47;100366.91;;;4.34;100.00
72685;BME280;61365;52.162;4.500;2024-01-15T00:27:13;100360.13;;;4.44;100.00
72685;BME280;61365;52.162;4.500;2024-01-15T00:29:39;100349.06;;;4.02;100.00
72685;BME280;61365;52.162;4.500;2024-01-15T00:32:05;100351.78;;;4.12;100.00
72685;BME280;61365;52.162;4.500;2024-01-15T00:34:31;100340.91;;;4.34;100.00
72685;BME280;61365;52.162;4.500;2024-01-15T00:36:57;100344.06;;;4.16;100.00
72685;BME280;61365;52.162;4.500;2024-01-15T00:39:23;100342.19;;;4.60;100.00
72685;BME280;61365;52.162;4.500;2024-01-15T00:41:49;100337.41;;;4.89;100.00
72685;BME280;61365;52.162;4.500;2024-01-15T00:44:15;100333.75;;;4.76;100.00
72685;BME280;61365;52.162;4.500;2024-01-15T00:46:44;100328.63;;;4.81;100.00
72685;BME280;61365;52.162;4.500;2024-01-15T00:49:12;100333.66;;;4.69;100.00
72685;BME280;61365;52.162;4.500;2024-01-15T00:51:39;100323.50;;;4.86;100.00
72685;BME280;61365;52.162;4.500;2024-01-15T00:54:05;100331.56;;;5.04;100.00
72685;BME280;61365;52.162;4.500;2024-01-15T00:56:31;100329.94;;;5.14;100.00
72685;BME280;61365;52.162;4.500;2024-01-15T00:58:57;100324.66;;;5.06;100.00
72685;BME280;61365;52.162;4.500;2024-01-15T01:01:23;100327.97;;;4.96;100.00
72685;BME280;61365;52.162;4.500;2024-01-15T01:03:50;100320.88;;;4.84;100.00
72685;BME280;61365;52.162;4.500;2024-01-15T01:06:16;100320.97;;;4.90;100.00
72685;BME280;61365;52.162;4.500;2024-01-15T01:08:42;100335.06;;;5.06;100.00
72685;BME280;61365;52.162;4.500;2024-01-15T01:11:12;100319.22;;;4.88;100.00
72685;BME280;61365;52.162;4.500;2024-01-15T01:13:39;100328.53;;;4.73;100.00
72685;BME280;61365;52.162;4.500;2024-01-15T01:16:05;100334.66;;;4.77;100.00
72685;BME280;61365;52.162;4.500;2024-01-15T01:18:31;100328.59;;;4.78;100.00
72685;BME280;61365;52.162;4.500;2024-01-15T01:20:57;100335.00;;;4.43;100.00
72685;BME280;61365;52.162;4.500;2024-01-15T01:23:23;100330.06;;;4.59;100.00
72685;BME280;61365;52.162;4.500;2024-01-15T01:25:49;100326.59;;;4.60;100.00
72685;BME280;61365;52.162;4.500;2024-01-15T01:28:15;100324.06;;;4.63;100.00
72685;BME280;61365;52.162;4.500;2024-01-15T01:30:42;100321.94;;;4.37;100.00
72685;BME280;61365;52.162;4.500;2024-01-15T01:33:08;100316.78;;;4.40;100.00
72685;BME280;61365;52.162;4.500;2024-01-15T01:35:34;100322.88;;;4.44;100.00
72685;BME280;61365;52.162;4.500;2024-01-15T01:38:00;100313.56;;;4.58;100.00
72685;BME280;61365;52.162;4.500;2024-01-15T01:40:27;100304.22;;;4.70;100.00
72685;BME280;61365;52.162;4.500;2024-01-15T01:42:53;100312.06;;;4.73;100.00
72685;BME280;61365;52.162;4.500;2024-01-15T01:45:19;100299.72;;;4.58;100.00
72685;BME280;61365;52.162;4.500;2024-01-15T01:47:45;100306.81;;;4.70;100.00
72685;BME280;61365;52.162;4.500;2024-01-15T01:50:11;100300.66;;;4.63;100.00
72685;BME280;61365;52.162;4.500;2024-01-15T01:52:39;100295.94;;;4.37;100.00
72685;BME280;61365;52.162;4.500;2024-01-15T01:55:06;100295.97;;;4.39;100.00
72685;BME280;61365;52.162;4.500;2024-01-15T01:57:34;100303.63;;;4.31;100.00
72685;BME280;61365;52.162;4.500;2024-01-15T02:00:02;100308.09;;;4.40;100.00
72685;BME280;61365;52.162;4.500;2024-01-15T02:02:30;100313.13;;;4.30;100.00
72685;BME280;61365;52.162;4.500;2024-01-15T02:04:57;100299.06;;;4.17;100.00
72685;BME280;61365;52.162;4.500;2024-01-15T02:07:23;100307.63;;;4.10;100.00
72685;BME280;61365;52.162;4.500;2024-01-15T02:09:49;100306.56;;;4.54;100.00
72685;BME280;61365;52.162;4.500;2024-01-15T02:12:15;100317.16;;;4.65;100.00
72685;BME280;61365;52.162;4.500;2024-01-15T02:14:42;100306.88;;;4.73;100.00
72685;BME280;61365;52.162;4.500;2024-01-15T02:17:08;100304.22;;;4.71;100.00
72685;BME280;61365;52.162;4.500;2024-01-15T02:19:34;100297.19;;;4.62;100.00
72685;BME280;61365;52.162;4.500;2024-01-15T02:22:00;100290.19;;;4.58;100.00
72685;BME280;61365;52.162;4.500;2024-01-15T02:24:26;100286.03;;;4.70;100.00
72685;BME280;61365;52.162;4.500;2024-01-15T02:26:52;100292.19;;;4.76;100.00
72685;BME280;61365;52.162;4.500;2024-01-15T02:29:19;100283.22;;;4.57;100.00
72685;BME280;61365;52.162;4.500;2024-01-15T02:31:45;100281.44;;;4.51;100.00
72685;BME280;61365;52.162;4.500;2024-01-15T02:34:11;100282.97;;;4.39;100.00
72685;BME280;61365;52.162;4.500;2024-01-15T02:36:37;100282.00;;;4.32;100.00
72685;BME280;61365;52.162;4.500;2024-01-15T02:39:03;100283.03;;;4.42;100.00
72685;BME280;61365;52.162;4.500;2024-01-15T02:41:29;100280.31;;;4.34;100.00
72685;BME280;61365;52.162;4.500;2024-01-15T02:43:55;100281.06;;;4.27;100.00
72685;BME280;61365;52.162;4.500;2024-01-15T02:46:21;100271.50;;;4.24;100.00
72685;BME280;61365;52.162;4.500;2024-01-15T02:48:47;100274.22;;;4.33;100.00
72685;BME280;61365;52.162;4.500;2024-01-15T02:51:13;100269.94;;;4.35;100.00
72685;BME280;61365;52.162;4.500;2024-01-15T02:53:39;100277.53;;;4.23;100.00
72685;BME280;61365;52.162;4.500;2024-01-15T02:56:06;100272.47;;;4.32;100.00
72685;BME280;61365;52.162;4.500;2024-01-15T02:58:33;100271.72;;;4.40;100.00
72685;BME280;61365;52.162;4.500;2024-01-15T03:00:59;100281.09;;;4.28;100.00
72685;BME280;61365;52.162;4.500;2024-01-15T03:03:25;100269.19;;;4.44;100.00
72685;BME280;61365;52.162;4.500;2024-01-15T03:05:51;100271.03;;;4.50;100.00
72685;BME280;61365;52.162;4.500;2024-01-15T03:08:17;100262.19;;;4.39;100.00
72685;BME280;61365;52.162;4.500;2024-01-15T03:10:43;100269.69;;;4.80;100.00
72685;BME280;61365;52.162;4.500;2024-01-15T03:13:09;100276.75;;;4.89;100.00
72685;BME280;61365;52.162;4.500;2024-01-15T03:15:35;100279.22;;;4.81;100.00
72685;BME280;61365;52.162;4.500;2024-01-15T03:18:01;100287.44;;;4.47;100.00
72685;BME280;61365;52.162;4.500;2024-01-15T03:20:28;100290.72;;;4.35;100.00
72685;BME280;61365;52.162;4.500;2024-01-15T03:22:54;100285.97;;;4.68;100.00
72685;BME280;61365;52.162;4.500;2024-01-15T03:25:20;100278.94;;;4.58;100.00
72685;BME280;61365;52.162;4.500;2024-01-15T03:27:46;100271.88;;;4.50;100.00
72685;BME280;61365;52.162;4.500;2024-01-15T03:30:12;100276.00;;;4.36;100.00
72685;BME280;61365;52.162;4.500;2024-01-15T03:32:39;100258.97;;;4.00;100.00
72685;BME280;61365;52.162;4.500;2024-01-15T03:35:05;100254.63;;;3.97;100.00
72685;BME280;61365;52.162;4.500;2024-01-15T03:37:31;100259.72;;;3.91;100.00
72685;BME280;61365;52.162;4.500;2024-01-15T03:39:58;100258.25;;;4.09;100.00
72685;BME280;61365;52.162;4.500;2024-01-15T03:42:24;100264.88;;;4.45;100.00
72685;BME280;61365;52.162;4.500;2024-01-15T03:44:50;100263.81;;;4.32;100.00
72685;BME280;61365;52.162;4.500;2024-01-15T03:47:16;100272.41;;;4.29;100.00
72685;BME280;61365;52.162;4.500;2024-01-15T03:49:42;100262.56;;;4.06;100.00
72685;BME280;61365;52.162;4.500;2024-01-15T03:52:08;100253.84;;;4.01;100.00
72685;BME280;61365;52.162;4.500;2024-01-15T03:54:34;100248.81;;;4.12;100.00
72685;BME280;61365;52.162;4.500;2024-01-15T03:57:00;100252.09;;;4.00;100.00
72685;BME280;61365;52.162;4.500;2024-01-15T03:59:26;100252.09;;;4.02;100.00
72685;BME280;61365;52.162;4.500;2024-01-15T04:01:52;100249.31;;;3.89;100.00
72685;BME280;61365;52.162;4.500;2024-01-15T04:04:18;100248.47;;;3.92;100.00
72685;BME280;61365;52.162;4.500;2024-01-15T04:06:44;100247.97;;;4.15;100.00
72685;BME280;61365;52.162;4.500;2024-01-15T04:09:12;100242.88;;;4.21;100.00
72685;BME280;61365;52.162;4.500;2024-01-15T04:11:39;100242.03;;;4.22;100.00
72685;BME280;61365;52.162;4.500;2024-01-15T04:14:05;100231.69;;;4.25;100.00
72685;BME280;61365;52.162;4.500;2024-01-15T04:16:31;100235.25;;;4.32;100.00
72685;BME280;61365;52.162;4.500;2024-01-15T04:18:57;100231.75;;;4.30;100.00
72685;BME280;61365;52.162;4.500;2024-01-15T04:21:24;100233.50;;;4.32;100.00
72685;BME280;61365;52.162;4.500;2024-01-15T04:23:50;100232.56;;;4.26;100.00
72685;BME280;61365;52.162;4.500;2024-01-15T04:26:16;100226.03;;;4.54;100.00
72685;BME280;61365;52.162;4.500;2024-01-15T04:28:42;100226.50;;;4.25;100.00
72685;BME280;61365;52.162;4.500;2024-01-15T04:31:08;100219.63;;;4.29;100.00
72685;BME280;61365;52.162;4.500;2024-01-15T04:33:34;100225.72;;;4.32;100.00
72685;BME280;61365;52.162;4.500;2024-01-15T04:36:06;100231.91;;;4.39;100.00
72685;BME280;61365;52.162;4.500;2024-01-15T04:38:32;100227.72;;;4.50;100.00
72685;BME280;61365;52.162;4.500;2024-01-15T04:40:58;100227.25;;;4.19;100.00
72685;BME280;61365;52.162;4.500;2024-01-15T04:43:24;100222.09;;;4.21;100.00
72685;BME280;61365;52.162;4.500;2024-01-15T04:45:50;100211.97;;;4.38;100.00
72685;BME280;61365;52.162;4.500;2024-01-15T04:48:17;100206.44;;;4.15;100.00
72685;BME280;61365;52.162;4.500;2024-01-15T04:50:43;100201.91;;;4.03;100.00
72685;BME280;61365;52.162;4.500;2024-01-15T04:53:09;100201.81;;;3.95;100.00
72685;BME280;61365;52.162;4.500;2024-01-15T04:55:35;100204.47;;;3.98;100.00
72685;BME280;61365;52.162;4.500;2024-01-15T04:58:01;100198.63;;;4.13;100.00
72685;BME280;61365;52.162;4.500;2024-01-15T05:00:27;100199.31;;;4.01;100.00
72685;BME280;61365;52.162;4.500;2024-01-15T05:02:54;100196.72;;;4.03;100.00
72685;BME280;61365;52.162;4.500;2024-01-15T05:05:20;100195.03;;;4.03;100.00
72685;BME280;61365;52.162;4.500;2024-01-15T05:07:46;100206.25;;;4.04;100.00
72685;BME280;61365;52.162;4.500;2024-01-15T05:10:12;100202.13;;;4.18;100.00
72685;BME280;61365;52.162;4.500;2024-01-15T05:12:38;100195.53;;;4.42;100.00
72685;BME280;61365;52.162;4.500;2024-01-15T05:15:04;100202.44;;;4.39;100.00
72685;BME280;61365;52.162;4.500;2024-01-15T05:17:30;100203.25;;;4.34;100.00
72685;BME280;61365;52.162;4.500;2024-01-15T05:19:56;100198.84;;;4.30;100.00
72685;BME280;61365;52.162;4.500;2024-01-15T05:22:22;100194.41;;;4.21;100.00
72685;BME280;61365;52.162;4.500;2024-01-15T05:24:50;100191.59;;;4.08;100.00
72685;BME280;61365;52.162;4.500;2024-01-15T05:27:16;100192.38;;;4.00;100.00
72685;BME280;61365;52.162;4.500;2024-01-15T05:29:42;100194.88;;;3.96;100.00
72685;BME280;61365;52.162;4.500;2024-01-15T05:32:08;100182.63;;;3.87;100.00
72685;BME280;61365;52.162;4.500;2024-01-15T05:34:34;100190.47;;;3.88;100.00
72685;BME280;61365;52.162;4.500;2024-01-15T05:37:00;100189.78;;;4.00;100.00
72685;BME280;61365;52.162;4.500;2024-01-15T05:39:26;100182.63;;;3.87;100.00
72685;BME280;61365;52.162;4.500;2024-01-15T05:41:52;100178.50;;;4.00;100.00
72685;BME280;61365;52.162;4.500;2024-01-15T05:44:19;100184.69;;;4.10;100.00
72685;BME280;61365;52.162;4.500;2024-01-15T05:46:45;100172.16;;;4.42;100.00
72685;BME280;61365;52.162;4.500;2024-01-15T05:49:11;100170.00;;;4.75;100.00
72685;BME280;61365;52.162;4.500;2024-01-15T05:51:37;100171.66;;;4.71;100.00
72685;BME280;61365;52.162;4.500;2024-01-15T05:54:03;100169.97;;;4.73;100.00
72685;BME280;61365;52.162;4.500;2024-01-15T05:56:29;100185.56;;;4.72;100.00
72685;BME280;61365;52.162;4.500;2024-01-15T05:58:55;100197.63;;;4.68;100.00
72685;BME280;61365;52.162;4.500;2024-01-15T06:01:21;100193.94;;;4.49;100.00
72685;BME280;61365;52.162;4.500;2024-01-15T06:03:47;100190.84;;;4.13;100.00
72685;BME280;61365;52.162;4.500;2024-01-15T06:06:13;100188.19;;;4.12;100.00
72685;BME280;61365;52.162;4.500;2024-01-15T06:08:39;100186.66;;;4.23;100.00
72685;BME280;61365;52.162;4.500;2024-01-15T06:11:06;100186.50;;;4.12;100.00
72685;BME280;61365;52.162;4.500;2024-01-15T06:13:33;100190.75;;;4.09;100.00
72685;BME280;61365;52.162;4.500;2024-01-15T06:15:59;100192.44;;;4.05;100.00
72685;BME280;61365;52.162;4.500;2024-01-15T06:18:25;100202.97;;;4.16;100.00
72685;BME280;61365;52.162;4.500;2024-01-15T06:20:51;100217.56;;;4.06;100.00
72685;BME280;61365;52.162;4.500;2024-01-15T06:23:17;100198.44;;;4.01;100.00
72685;BME280;61365;52.162;4.500;2024-01-15T06:25:43;100183.47;;;3.84;100.00
72685;BME280;61365;52.162;4.500;2024-01-15T06:28:09;100168.06;;;3.97;100.00
72685;BME280;61365;52.162;4.500;2024-01-15T06:30:35;100173.09;;;3.86;100.00
72685;BME280;61365;52.162;4.500;2024-01-15T06:33:01;100175.75;;;3.89;100.00
72685;BME280;61365;52.162;4.500;2024-01-15T06:35:28;100185.97;;;3.78;100.00
72685;BME280;61365;52.162;4.500;2024-01-15T06:37:54;100196.28;;;3.75;100.00
72685;BME280;61365;52.162;4.500;2024-01-15T06:40:20;100205.41;;;4.05;100.00
72685;BME280;61365;52.162;4.500;2024-01-15T06:42:46;100209.44;;;3.86;100.00
72685;BME280;61365;52.162;4.500;2024-01-15T06:45:12;100211.91;;;3.77;100.00
72685;BME280;61365;52.162;4.500;2024-01-15T06:47:38;100222.09;;;3.66;100.00
72685;BME280;61365;52.162;4.500;2024-01-15T06:50:04;100222.34;;;3.32;100.00
72685;BME280;61365;52.162;4.500;2024-01-15T06:52:32;100222.75;;;3.08;100.00
72685;BME280;61365;52.162;4.500;2024-01-15T06:54:58;100222.63;;;3.02;100.00
72685;BME280;61365;52.162;4.500;2024-01-15T06:57:24;100215.06;;;3.12;100.00
72685;BME280;61365;52.162;4.500;2024-01-15T06:59:50;100202.94;;;3.11;100.00
72685;BME280;61365;52.162;4.500;2024-01-15T07:02:17;100199.44;;;3.09;100.00
72685;BME280;61365;52.162;4.500;2024-01-15T07:04:43;100203.63;;;3.01;100.00
72685;BME280;61365;52.162;4.500;2024-01-15T07:07:09;100208.63;;;2.93;100.00
72685;BME280;61365;52.162;4.500;2024-01-15T07:09:35;100188.28;;;3.13;100.00
72685;BME280;61365;52.162;4.500;2024-01-15T07:12:01;100188.13;;;3.04;100.00
72685;BME280;61365;52.162;4.500;2024-01-15T07:14:27;100172.72;;;3.12;100.00
72685;BME280;61365;52.162;4.500;2024-01-15T07:16:53;100180.25;;;2.99;100.00
72685;BME280;61365;52.162;4.500;2024-01-15T07:19:19;100172.13;;;2.81;100.00
72685;BME280;61365;52.162;4.500;2024-01-15T07:21:45;100168.63;;;2.77;100.00
72685;BME280;61365;52.162;4.500;2024-01-15T07:24:12;100174.75;;;2.82;100.00
72685;BME280;61365;52.162;4.500;2024-01-15T07:26:38;100176.56;;;2.87;100.00
72685;BME280;61365;52.162;4.500;2024-01-15T07:29:04;100178.50;;;2.98;100.00
72685;BME280;61365;52.162;4.500;2024-01-15T07:31:30;100177.25;;;3.24;100.00
72685;BME280;61365;52.162;4.500;2024-01-15T07:33:56;100186.94;;;3.34;100.00
72685;BME280;61365;52.162;4.500;2024-01-15T07:36:22;100190.38;;;3.33;100.00
72685;BME280;61365;52.162;4.500;2024-01-15T07:38:48;100178.97;;;3.23;100.00
72685;BME280;61365;52.162;4.500;2024-01-15T07:41:14;100173.13;;;3.34;100.00
72685;BME280;61365;52.162;4.500;2024-01-15T07:43:41;100185.06;;;3.25;100.00
72685;BME280;61365;52.162;4.500;2024-01-15T07:46:07;100175.00;;;3.44;100.00
72685;BME280;61365;52.162;4.500;2024-01-15T07:48:33;100174.06;;;3.39;100.00
72685;BME280;61365;52.162;4.500;2024-01-15T07:50:59;100175.91;;;3.44;100.00
72685;BME280;61365;52.162;4.500;2024-01-15T07:53:25;100180.41;;;3.56;100.00
72685;BME280;61365;52.162;4.500;2024-01-15T07:55:52;100181.88;;;3.94;100.00
72685;BME280;61365;52.162;4.500;2024-01-15T07:58:18;100174.25;;;4.03;100.00
72685;BME280;61365;52.162;4.500;2024-01-15T08:00:44;100183.16;;;4.21;100.00
72685;BME280;61365;52.162;4.500;2024-01-15T08:03:11;100168.97;;;3.99;100.00
72685;BME280;61365;52.162;4.500;2024-01-15T08:05:37;100180.41;;;4.10;100.00
72685;BME280;61365;52.162;4.500;2024-01-15T08:08:04;100177.75;;;4.09;100.00
72685;BME280;61365;52.162;4.500;2024-01-15T08:10:30;100188.25;;;4.16;100.00
72685;BME280;61365;52.162;4.500;2024-01-15T08:12:56;100189.94;;;4.11;100.00
72685;BME280;61365;52.162;4.500;2024-01-15T08:15:22;100185.59;;;4.10;100.00
72685;BME280;61365;52.162;4.500;2024-01-15T08:17:48;100186.50;;;4.14;100.00
72685;BME280;61365;52.162;4.500;2024-01-15T08:20:14;100190.91;;;4.19;100.00
72685;BME280;61365;52.162;4.500;2024-01-15T08:22:41;100183.66;;;3.97;100.00
72685;BME280;61365;52.162;4.500;2024-01-15T08:25:08;100185.66;;;4.15;100.00
72685;BME280;61365;52.162;4.500;2024-01-15T08:27:34;100179.44;;;4.03;100.00
72685;BME280;61365;52.162;4.500;2024-01-15T08:30:03;100185.38;;;3.96;100.00
72685;BME280;61365;52.162;4.500;2024-01-15T08:32:30;100180.28;;;4.02;100.00
72685;BME280;61365;52.162;4.500;2024-01-15T08:34:56;100200.88;;;4.51;100.00
72685;BME280;61365;52.162;4.500;2024-01-15T08:37:22;100200.38;;;4.14;100.00
72685;BME280;61365;52.162;4.500;2024-01-15T08:39:48;100213.09;;;3.97;100.00
72685;BME280;61365;52.162;4.500;2024-01-15T08:42:14;100216.66;;;3.52;100.00
72685;BME280;61365;52.162;4.500;2024-01-15T08:44:40;100221.34;;;3.25;100.00
72685;BME280;61365;52.162;4.500;2024-01-15T08:47:08;100221.34;;;3.24;100.00
72685;BME280;61365;52.162;4.500;2024-01-15T08:49:34;100228.22;;;3.22;100.00
72685;BME280;61365;52.162;4.500;2024-01-15T08:52:01;100224.28;;;3.44;100.00
72685;BME280;61365;52.162;4.500;2024-01-15T08:54:28;100221.63;;;3.41;100.00
72685;BME280;61365;52.162;4.500;2024-01-15T08:56:54;100226.19;;;3.53;100.00
72685;BME280;61365;52.162;4.500;2024-01-15T08:59:20;100213.00;;;3.42;100.00
72685;BME280;61365;52.162;4.500;2024-01-15T09:01:50;100227.13;;;3.56;100.00
72685;BME280;61365;52.162;4.500;2024-01-15T09:04:16;100223.00;;;3.69;100.00
72685;BME280;61365;52.162;4.500;2024-01-15T09:06:45;100215.81;;;3.53;100.00
72685;BME280;61365;52.162;4.500;2024-01-15T09:09:15;100215.34;;;3.77;100.00
72685;BME280;61365;52.162;4.500;2024-01-15T09:11:41;100210.75;;;3.60;100.00
72685;BME280;61365;52.162;4.500;2024-01-15T09:14:07;100210.94;;;3.73;100.00
72685;BME280;61365;52.162;4.500;2024-01-15T09:16:34;100223.53;;;4.00;100.00
72685;BME280;61365;52.162;4.500;2024-01-15T09:19:01;100214.91;;;4.03;100.00
72685;BME280;61365;52.162;4.500;2024-01-15T09:21:27;100235.66;;;4.03;100.00
72685;BME280;61365;52.162;4.500;2024-01-15T09:23:53;100222.41;;;3.86;100.00
72685;BME280;61365;52.162;4.500;2024-01-15T09:26:19;100216.03;;;3.65;100.00
72685;BME280;61365;52.162;4.500;2024-01-15T09:28:45;100222.78;;;3.57;100.00
72685;BME280;61365;52.162;4.500;2024-01-15T09:31:11;100227.34;;;3.70;100.00
72685;BME280;61365;52.162;4.500;2024-01-15T09:33:37;100233.41;;;4.23;100.00
72685;BME280;61365;52.162;4.500;2024-01-15T09:36:03;100214.09;;;4.70;100.00
72685;BME280;61365;52.162;4.500;2024-01-15T09:38:31;100211.41;;;4.62;100.00
72685;BME280;61365;52.162;4.500;2024-01-15T09:40:57;100219.81;;;4.41;100.00
72685;BME280;61365;52.162;4.500;2024-01-15T09:43:24;100218.50;;;4.73;100.00
72685;BME280;61365;52.162;4.500;2024-01-15T09:45:50;100206.69;;;5.01;100.00
72685;BME280;61365;52.162;4.500;2024-01-15T09:48:17;100203.16;;;4.94;100.00
72685;BME280;61365;52.162;4.500;2024-01-15T09:50:43;100207.69;;;5.13;100.00
72685;BME280;61365;52.162;4.500;2024-01-15T09:53:09;100208.63;;;5.19;100.00
72685;BME280;61365;52.162;4.500;2024-01-15T09:55:38;100204.31;;;5.21;100.00
72685;BME280;61365;52.162;4.500;2024-01-15T09:58:05;100195.56;;;5.11;100.00
72685;BME280;61365;52.162;4.500;2024-01-15T10:00:31;100205.06;;;5.11;100.00
72685;BME280;61365;52.162;4.500;2024-01-15T10:02:59;100208.59;;;5.18;100.00
72685;BME280;61365;52.162;4.500;2024-01-15T10:05:28;100211.31;;;5.25;100.00
72685;BME280;61365;52.162;4.500;2024-01-15T10:07:54;100226.03;;;5.25;100.00
72685;BME280;61365;52.162;4.500;2024-01-15T10:10:23;100227.72;;;5.21;100.00
72685;BME280;61365;52.162;4.500;2024-01-15T10:12:49;100239.91;;;5.25;100.00
72685;BME280;61365;52.162;4.500;2024-01-15T10:15:16;100240.66;;;5.14;100.00
72685;BME280;61365;52.162;4.500;2024-01-15T10:17:42;100272.13;;;4.69;100.00
72685;BME280;61365;52.162;4.500;2024-01-15T10:22:38;100251.31;;;4.06;100.00
72685;BME280;61365;52.162;4.500;2024-01-15T10:25:12;100253.97;;;4.11;100.00
72685;BME280;61365;52.162;4.500;2024-01-15T10:27:40;100248.03;;;4.18;100.00
72685;BME280;61365;52.162;4.500;2024-01-15T10:30:08;100237.25;;;3.95;100.00
72685;BME280;61365;52.162;4.500;2024-01-15T10:32:34;100242.16;;;4.30;100.00
72685;BME280;61365;52.162;4.500;2024-01-15T10:35:00;100247.34;;;4.31;100.00
72685;BME280;61365;52.162;4.500;2024-01-15T10:37:27;100243.50;;;4.64;100.00
72685;BME280;61365;52.162;4.500;2024-01-15T10:39:53;100251.28;;;4.64;100.00
72685;BME280;61365;52.162;4.500;2024-01-15T10:42:19;100257.34;;;4.62;100.00
72685;BME280;61365;52.162;4.500;2024-01-15T10:44:45;100254.25;;;4.92;100.00
72685;BME280;61365;52.162;4.500;2024-01-15T10:47:14;100256.09;;;5.00;100.00
72685;BME280;61365;52.162;4.500;2024-01-15T10:49:41;100257.00;;;5.02;100.00
72685;BME280;61365;52.162;4.500;2024-01-15T10:52:07;100260.84;;;4.64;100.00
72685;BME280;61365;52.162;4.500;2024-01-15T10:54:33;100254.06;;;4.77;100.00
72685;BME280;61365;52.162;4.500;2024-01-15T10:57:03;100258.22;;;4.64;100.00
72685;BME280;61365;52.162;4.500;2024-01-15T10:59:29;100243.94;;;4.99;100.00
72685;BME280;61365;52.162;4.500;2024-01-15T11:01:55;100257.00;;;5.02;100.00
72685;BME280;61365;52.162;4.500;2024-01-15T11:04:22;100247.53;;;5.10;100.00
72685;BME280;61365;52.162;4.500;2024-01-15T11:06:50;100239.88;;;5.24;100.00
72685;BME280;61365;52.162;4.500;2024-01-15T11:09:19;100233.97;;;5.39;100.00
72685;BME280;61365;52.162;4.500;2024-01-15T11:11:45;100243.06;;;5.80;100.00
72685;BME280;61365;52.162;4.500;2024-01-15T11:17:01;100252.41;;;5.61;94.12
72685;BME280;61365;52.162;4.500;2024-01-15T11:24:57;100270.03;;;4.43;100.00
72685;BME280;61365;52.162;4.500;2024-01-15T11:27:43;100268.97;;;4.29;100.00
72685;BME280;61365;52.162;4.500;2024-01-15T11:30:11;100285.22;;;4.15;100.00
72685;BME280;61365;52.162;4.500;2024-01-15T11:32:38;100290.44;;;4.18;100.00
72685;BME280;61365;52.162;4.500;2024-01-15T11:35:11;100286.19;;;4.24;100.00
72685;BME280;61365;52.162;4.500;2024-01-15T11:40:20;100286.94;;;4.16;100.00
72685;BME280;61365;52.162;4.500;2024-01-15T11:42:48;100283.66;;;4.27;100.00
72685;BME280;61365;52.162;4.500;2024-01-15T11:45:16;100290.59;;;4.28;100.00
72685;BME280;61365;52.162;4.500;2024-01-15T11:48:03;100293.19;;;4.28;100.00
72685;BME280;61365;52.162;4.500;2024-01-15T11:50:42;100299.84;;;4.10;100.00
72685;BME280;61365;52.162;4.500;2024-01-15T11:53:30;100304.25;;;4.14;100.00
72685;BME280;61365;52.162;4.500;2024-01-15T11:56:18;100308.13;;;3.87;100.00
72685;BME280;61365;52.162;4.500;2024-01-15T11:58:48;100292.56;;;3.89;100.00
72685;BME280;61365;52.162;4.500;2024-01-15T12:01:16;100298.22;;;3.68;100.00
72685;BME280;61365;52.162;4.500;2024-01-15T12:03:42;100299.56;;;3.93;100.00
72685;BME280;61365;52.162;4.500;2024-01-15T12:06:10;100294.09;;;4.31;100.00
72685;BME280;61365;52.162;4.500;2024-01-15T12:08:37;100293.94;;;4.20;100.00
72685;BME280;61365;52.162;4.500;2024-01-15T12:11:06;100292.97;;;4.14;100.00
72685;BME280;61365;52.162;4.500;2024-01-15T12:13:36;100297.22;;;4.09;100.00
72685;BME280;61365;52.162;4.500;2024-01-15T12:16:02;100304.03;;;4.02;100.00
72685;BME280;61365;52.162;4.500;2024-01-15T12:18:29;100308.19;;;3.90;100.00
72685;BME280;61365;52.162;4.500;2024-01-15T12:20:56;100306.00;;;4.17;100.00
72685;BME280;61365;52.162;4.500;2024-01-15T12:23:24;100301.22;;;4.43;100.00
72685;BME280;61365;52.162;4.500;2024-01-15T12:25:50;100311.88;;;4.60;100.00
72685;BME280;61365;52.162;4.500;2024-01-15T12:28:16;100307.34;;;4.47;100.00
72685;BME280;61365;52.162;4.500;2024-01-15T12:30:46;100311.47;;;4.34;100.00
72685;BME280;61365;52.162;4.500;2024-01-15T12:33:14;100316.94;;;4.51;100.00
72685;BME280;61365;52.162;4.500;2024-01-15T12:35:40;100312.06;;;4.73;100.00
72685;BME280;61365;52.162;4.500;2024-01-15T12:38:07;100312.81;;;4.65;96.71
72685;BME280;61365;52.162;4.500;2024-01-15T12:40:33;100310.53;;;4.87;95.71
72685;BME280;61365;52.162;4.500;2024-01-15T12:43:00;100317.22;;;4.71;95.00
72685;BME280;61365;52.162;4.500;2024-01-15T12:45:27;100311.22;;;4.74;94.39
72685;BME280;61365;52.162;4.500;2024-01-15T12:47:53;100307.69;;;4.70;89.67
72685;BME280;61365;52.162;4.500;2024-01-15T12:50:23;100303.94;;;5.13;94.49
72685;BME280;61365;52.162;4.500;2024-01-15T12:52:51;100310.28;;;5.38;93.95
72685;BME280;61365;52.162;4.500;2024-01-15T12:55:17;100301.03;;;5.65;93.49
72685;BME280;61365;52.162;4.500;2024-01-15T12:57:43;100327.06;;;5.63;86.18
72685;BME280;61365;52.162;4.500;2024-01-15T13:00:10;100338.09;;;4.76;94.46